x

Ilm3 - 27 Miles Se Of Wrightsville Beach, Nc (41037) Weather Station

2:08pm - Fri 28th Apr 2017 All times are EDT. -4 hours from GMT.

  • Wind
    11mph, 16mph gusts
  • Sea Temp 73°f
  • 空気 Temp 75°f
  • Sea Pressure 1020mb
  • Ilm3 - 27 Miles Se Of Wrightsville Beach, Nc
  • Ilm3 - 27 Miles Se Of Wrightsville Beach, Nc

More Historic Weather Station data

Upgrade to MSW Pro to gain access to the past 30 days of data for over 8000 Wavebouys and Weather Stations around the globe.

Join Pro

Comparision Forecast

View Surf forecast
   
Fri 04/28 2:08pm 11 16 mph 1020mb 73f 75f
1:08pm 11 13 mph 1019.6mb 73f 75f
12:08pm 11 16 mph 1019.3mb 73f 74f
11:08am 11 18 mph 1018.9mb 72f 74f
10:08am 16 22 mph 1018.9mb 72f 74f
9:08am 13 18 mph 1018.6mb 72f 74f
8:08am 11 16 mph 1018.1mb 72f 74f
7:08am 11 16 mph 1017.4mb 72f 73f
6:08am 11 16 mph 1016.5mb 72f 73f
5:08am 11 16 mph 1016mb 72f 73f
4:08am 11 16 mph 1015.1mb 72f 73f
3:08am 13 18 mph 1014.3mb 72f 74f
2:08am 13 20 mph 1014.4mb 72f 74f
1:08am 13 20 mph 1014.6mb 72f 73f
12:08am 9 13 mph 1015.3mb 72f 73f
Thu 04/27 11:08pm 9 11 mph 1015.1mb 72f 73f
10:08pm 11 13 mph 1014.4mb 72f 74f
9:08pm 16 20 mph 1012.9mb 73f 74f
8:08pm 13 18 mph 1013.1mb 73f 74f
7:08pm 9 13 mph 1013.8mb 73f 74f
6:08pm 11 16 mph 1013.3mb 73f 74f
5:08pm 13 18 mph 1012.8mb 73f 74f
4:08pm 13 20 mph 1012.7mb 73f 74f
3:08pm 11 18 mph 1012.8mb 73f 74f
2:08pm 11 13 mph 1014mb 73f 73f
1:08pm 7 11 mph 1013.4mb 73f 73f
12:08pm 7 11 mph 1014.2mb 72f 73f
11:08am 11 16 mph 1014.5mb 72f 73f
10:08am 11 16 mph 1014.5mb 72f 73f
9:08am 7 9 mph 1013.7mb 72f 73f
8:08am 4 9 mph 1013.1mb 72f 71f
7:08am 4 9 mph 1012.6mb 72f 72f
6:08am 4 9 mph 1011.6mb 72f 72f
5:08am 7 9 mph 1011.1mb 72f 71f
4:08am 9 11 mph 1011.4mb 72f 72f
3:08am 11 16 mph 1011.6mb 72f 72f
2:08am 13 18 mph 1011.4mb 72f 72f
1:08am 13 20 mph 1011.7mb 72f 73f
12:08am 16 22 mph 1011.6mb 72f 73f
Wed 04/26 11:08pm 16 22 mph 1011.5mb 72f 72f
10:08pm 13 20 mph 1011.4mb 72f 72f
8:08pm 13 20 mph 1010.6mb 72f 73f
6:08pm 13 20 mph 1010.6mb 73f 73f
5:08pm 13 18 mph 1009.5mb 72f 72f
4:08pm 11 13 mph 1009.4mb 72f 71f
3:08pm 9 11 mph 1009.3mb 72f 71f
2:08pm 7 9 mph 1010.3mb 72f 70f
1:08pm 7 11 mph 1011.4mb 72f 68f
12:08pm 9 13 mph 1011.6mb 71f 67f
11:08am 9 11 mph 1011.1mb 71f 67f
10:08am 9 13 mph 1010.3mb 71f 66f
9:08am 9 13 mph 1009.6mb 71f 66f
8:08am 11 16 mph 1009.2mb 71f 66f
7:08am 13 20 mph 1008.4mb 71f 65f
6:08am 13 22 mph 1007.4mb 71f 65f
5:08am 13 20 mph 1006.5mb 71f 66f
4:08am 13 20 mph 1006.7mb 71f 65f
3:08am 16 25 mph 1006.6mb 71f 66f
2:08am 16 25 mph 1006.5mb 71f 65f
1:08am 16 25 mph 1006.7mb 71f 66f
12:08am 18 25 mph 1006.4mb 71f 66f
Tue 04/25 11:08pm 18 25 mph 1006.1mb 71f 66f
10:08pm 16 25 mph 1006.3mb 71f 67f
9:08pm 18 27 mph 1005.3mb 72f 67f
8:08pm 18 27 mph 1004.7mb 72f 68f
7:08pm 20 27 mph 1003.9mb 72f 67f
6:08pm 20 27 mph 1003.9mb 72f 67f
5:08pm 20 27 mph 1003.1mb 72f 68f
4:08pm 20 27 mph 1003mb 72f 67f
3:08pm 18 25 mph 1002.9mb 72f 67f
2:08pm 16 25 mph 1003mb 72f 67f
1:08pm 16 22 mph 1002.8mb 72f 66f
12:08pm 16 25 mph 1003.6mb 72f 67f
11:08am 16 22 mph 1003.2mb 72f 67f
10:08am 18 25 mph 1003.1mb 72f 67f
9:08am 20 29 mph 1002.2mb 72f 68f
8:08am 13 20 mph 1001.6mb 72f 69f
7:08am 16 22 mph 1001.4mb 72f 70f
6:08am 13 20 mph 1000.6mb 72f 70f
5:08am 11 20 mph 999.5mb 72f 70f
3:08am 9 16 mph 1000.1mb 72f 70f
2:08am 11 20 mph 1000.5mb 72f 69f
1:08am 9 16 mph 1002mb 72f 69f
12:08am 9 16 mph 1002.6mb 72f 67f
Mon 04/24 11:08pm 11 18 mph 1003mb 72f 67f
10:08pm 11 20 mph 1003.7mb 72f 66f
9:08pm 13 18 mph 1003.2mb 72f 66f
8:08pm 20 29 mph 1002.4mb 72f 67f